sensor_id;sensor_type;location;lat;lon;timestamp;P1;durP1;ratioP1;P2;durP2;ratioP2
51921;SDS011;37948;53.260;6.394;2022-11-28T00:01:05;10.93;;;8.60;;
51921;SDS011;37948;53.260;6.394;2022-11-28T00:03:32;12.95;;;8.70;;
51921;SDS011;37948;53.260;6.394;2022-11-28T00:06:04;10.85;;;8.30;;
51921;SDS011;37948;53.260;6.394;2022-11-28T00:08:31;11.05;;;9.13;;
51921;SDS011;37948;53.260;6.394;2022-11-28T00:10:57;11.55;;;8.82;;
51921;SDS011;37948;53.260;6.394;2022-11-28T00:13:27;14.15;;;9.35;;
51921;SDS011;37948;53.260;6.394;2022-11-28T00:15:56;12.32;;;9.07;;
51921;SDS011;37948;53.260;6.394;2022-11-28T00:18:22;11.43;;;9.00;;
51921;SDS011;37948;53.260;6.394;2022-11-28T00:20:48;14.07;;;9.05;;
51921;SDS011;37948;53.260;6.394;2022-11-28T00:23:13;12.25;;;8.40;;
51921;SDS011;37948;53.260;6.394;2022-11-28T00:25:39;10.98;;;8.77;;
51921;SDS011;37948;53.260;6.394;2022-11-28T00:28:04;12.05;;;8.85;;
51921;SDS011;37948;53.260;6.394;2022-11-28T00:30:30;9.15;;;8.13;;
51921;SDS011;37948;53.260;6.394;2022-11-28T00:32:59;11.73;;;8.20;;
51921;SDS011;37948;53.260;6.394;2022-11-28T00:35:25;12.23;;;8.35;;
51921;SDS011;37948;53.260;6.394;2022-11-28T00:37:50;11.38;;;9.15;;
51921;SDS011;37948;53.260;6.394;2022-11-28T00:40:16;10.35;;;7.85;;
51921;SDS011;37948;53.260;6.394;2022-11-28T00:42:41;11.45;;;8.15;;
51921;SDS011;37948;53.260;6.394;2022-11-28T00:45:07;11.55;;;7.70;;
51921;SDS011;37948;53.260;6.394;2022-11-28T00:47:33;10.98;;;8.20;;
51921;SDS011;37948;53.260;6.394;2022-11-28T00:49:58;10.05;;;7.70;;
51921;SDS011;37948;53.260;6.394;2022-11-28T00:52:24;13.00;;;8.13;;
51921;SDS011;37948;53.260;6.394;2022-11-28T00:54:49;11.13;;;7.72;;
51921;SDS011;37948;53.260;6.394;2022-11-28T00:57:15;9.88;;;7.32;;
51921;SDS011;37948;53.260;6.394;2022-11-28T00:59:41;8.88;;;7.68;;
51921;SDS011;37948;53.260;6.394;2022-11-28T01:02:06;11.63;;;7.20;;
51921;SDS011;37948;53.260;6.394;2022-11-28T01:04:32;13.30;;;8.15;;
51921;SDS011;37948;53.260;6.394;2022-11-28T01:06:57;12.57;;;7.90;;
51921;SDS011;37948;53.260;6.394;2022-11-28T01:09:23;11.77;;;8.18;;
51921;SDS011;37948;53.260;6.394;2022-11-28T01:11:50;10.55;;;7.78;;
51921;SDS011;37948;53.260;6.394;2022-11-28T01:14:18;10.43;;;7.63;;
51921;SDS011;37948;53.260;6.394;2022-11-28T01:16:45;9.60;;;6.85;;
51921;SDS011;37948;53.260;6.394;2022-11-28T01:19:10;13.15;;;7.35;;
51921;SDS011;37948;53.260;6.394;2022-11-28T01:21:37;8.32;;;7.47;;
51921;SDS011;37948;53.260;6.394;2022-11-28T01:24:04;12.48;;;6.95;;
51921;SDS011;37948;53.260;6.394;2022-11-28T01:26:30;9.13;;;7.03;;
51921;SDS011;37948;53.260;6.394;2022-11-28T01:28:56;12.38;;;6.95;;
51921;SDS011;37948;53.260;6.394;2022-11-28T01:31:24;13.85;;;6.95;;
51921;SDS011;37948;53.260;6.394;2022-11-28T01:33:52;10.77;;;7.15;;
51921;SDS011;37948;53.260;6.394;2022-11-28T01:36:17;9.88;;;7.00;;
51921;SDS011;37948;53.260;6.394;2022-11-28T01:38:44;12.02;;;7.97;;
51921;SDS011;37948;53.260;6.394;2022-11-28T01:41:10;12.05;;;8.02;;
51921;SDS011;37948;53.260;6.394;2022-11-28T01:43:36;12.75;;;7.45;;
51921;SDS011;37948;53.260;6.394;2022-11-28T01:46:20;10.05;;;7.80;;
51921;SDS011;37948;53.260;6.394;2022-11-28T01:48:45;9.93;;;8.02;;
51921;SDS011;37948;53.260;6.394;2022-11-28T01:51:11;9.98;;;7.90;;
51921;SDS011;37948;53.260;6.394;2022-11-28T01:53:43;13.55;;;8.38;;
51921;SDS011;37948;53.260;6.394;2022-11-28T01:56:20;11.50;;;7.63;;
51921;SDS011;37948;53.260;6.394;2022-11-28T01:58:51;11.02;;;7.57;;
51921;SDS011;37948;53.260;6.394;2022-11-28T02:01:23;10.05;;;7.85;;
51921;SDS011;37948;53.260;6.394;2022-11-28T02:03:50;10.68;;;7.60;;
51921;SDS011;37948;53.260;6.394;2022-11-28T02:06:19;16.42;;;8.77;;
51921;SDS011;37948;53.260;6.394;2022-11-28T02:08:51;10.38;;;8.23;;
51921;SDS011;37948;53.260;6.394;2022-11-28T02:22:52;14.38;;;8.77;;
51921;SDS011;37948;53.260;6.394;2022-11-28T02:25:48;13.05;;;9.68;;
51921;SDS011;37948;53.260;6.394;2022-11-28T02:40:18;12.02;;;9.15;;
51921;SDS011;37948;53.260;6.394;2022-11-28T02:48:10;13.40;;;9.57;;
51921;SDS011;37948;53.260;6.394;2022-11-28T02:50:57;14.43;;;11.35;;
51921;SDS011;37948;53.260;6.394;2022-11-28T02:53:30;12.93;;;10.32;;
51921;SDS011;37948;53.260;6.394;2022-11-28T02:55:58;14.05;;;10.35;;
51921;SDS011;37948;53.260;6.394;2022-11-28T02:58:24;16.75;;;10.93;;
51921;SDS011;37948;53.260;6.394;2022-11-28T03:00:50;14.63;;;11.45;;
51921;SDS011;37948;53.260;6.394;2022-11-28T03:06:16;14.88;;;11.27;;
51921;SDS011;37948;53.260;6.394;2022-11-28T03:14:46;15.85;;;12.27;;
51921;SDS011;37948;53.260;6.394;2022-11-28T03:17:18;18.80;;;12.55;;
51921;SDS011;37948;53.260;6.394;2022-11-28T03:22:56;15.73;;;11.93;;
51921;SDS011;37948;53.260;6.394;2022-11-28T03:26:00;15.32;;;12.00;;
51921;SDS011;37948;53.260;6.394;2022-11-28T03:28:34;16.20;;;12.57;;
51921;SDS011;37948;53.260;6.394;2022-11-28T03:31:03;16.23;;;11.65;;
51921;SDS011;37948;53.260;6.394;2022-11-28T03:33:37;16.75;;;12.52;;
51921;SDS011;37948;53.260;6.394;2022-11-28T03:36:07;16.65;;;11.50;;
51921;SDS011;37948;53.260;6.394;2022-11-28T03:38:49;14.57;;;11.77;;
51921;SDS011;37948;53.260;6.394;2022-11-28T03:41:21;16.58;;;11.68;;
51921;SDS011;37948;53.260;6.394;2022-11-28T03:43:54;17.42;;;12.85;;
51921;SDS011;37948;53.260;6.394;2022-11-28T03:46:22;14.23;;;12.02;;
51921;SDS011;37948;53.260;6.394;2022-11-28T03:48:52;13.48;;;11.70;;
51921;SDS011;37948;53.260;6.394;2022-11-28T03:51:21;16.65;;;12.02;;
51921;SDS011;37948;53.260;6.394;2022-11-28T03:54:01;15.68;;;11.75;;
51921;SDS011;37948;53.260;6.394;2022-11-28T03:56:45;16.63;;;11.77;;
51921;SDS011;37948;53.260;6.394;2022-11-28T03:59:33;16.75;;;12.52;;
51921;SDS011;37948;53.260;6.394;2022-11-28T04:04:32;16.17;;;12.20;;
51921;SDS011;37948;53.260;6.394;2022-11-28T04:09:57;14.68;;;11.70;;
51921;SDS011;37948;53.260;6.394;2022-11-28T04:12:33;16.95;;;12.73;;
51921;SDS011;37948;53.260;6.394;2022-11-28T04:15:13;14.50;;;12.15;;
51921;SDS011;37948;53.260;6.394;2022-11-28T04:23:30;16.73;;;12.93;;
51921;SDS011;37948;53.260;6.394;2022-11-28T04:26:00;16.08;;;13.73;;
51921;SDS011;37948;53.260;6.394;2022-11-28T04:28:30;19.35;;;13.80;;
51921;SDS011;37948;53.260;6.394;2022-11-28T04:30:58;22.17;;;15.40;;
51921;SDS011;37948;53.260;6.394;2022-11-28T04:33:26;17.90;;;13.52;;
51921;SDS011;37948;53.260;6.394;2022-11-28T04:35:55;19.02;;;14.05;;
51921;SDS011;37948;53.260;6.394;2022-11-28T04:38:22;17.45;;;14.40;;
51921;SDS011;37948;53.260;6.394;2022-11-28T04:40:55;19.17;;;14.63;;
51921;SDS011;37948;53.260;6.394;2022-11-28T04:43:33;19.30;;;14.68;;
51921;SDS011;37948;53.260;6.394;2022-11-28T04:46:03;18.90;;;15.30;;
51921;SDS011;37948;53.260;6.394;2022-11-28T04:48:33;16.63;;;13.77;;
51921;SDS011;37948;53.260;6.394;2022-11-28T04:51:03;17.52;;;14.85;;
51921;SDS011;37948;53.260;6.394;2022-11-28T04:54:01;18.95;;;13.68;;
51921;SDS011;37948;53.260;6.394;2022-11-28T04:56:36;16.52;;;13.75;;
51921;SDS011;37948;53.260;6.394;2022-11-28T04:59:08;17.35;;;13.85;;
51921;SDS011;37948;53.260;6.394;2022-11-28T05:01:36;15.90;;;13.57;;
51921;SDS011;37948;53.260;6.394;2022-11-28T05:04:04;15.30;;;13.65;;
51921;SDS011;37948;53.260;6.394;2022-11-28T05:06:31;16.60;;;14.52;;
51921;SDS011;37948;53.260;6.394;2022-11-28T05:08:58;15.02;;;13.00;;
51921;SDS011;37948;53.260;6.394;2022-11-28T05:11:24;15.95;;;13.10;;
51921;SDS011;37948;53.260;6.394;2022-11-28T05:13:51;14.65;;;12.85;;
51921;SDS011;37948;53.260;6.394;2022-11-28T05:16:17;15.35;;;13.07;;
51921;SDS011;37948;53.260;6.394;2022-11-28T05:18:43;16.80;;;13.85;;
51921;SDS011;37948;53.260;6.394;2022-11-28T05:21:09;15.95;;;13.27;;
51921;SDS011;37948;53.260;6.394;2022-11-28T05:23:35;17.08;;;13.40;;
51921;SDS011;37948;53.260;6.394;2022-11-28T05:26:09;17.02;;;13.20;;
51921;SDS011;37948;53.260;6.394;2022-11-28T05:28:37;16.20;;;12.60;;
51921;SDS011;37948;53.260;6.394;2022-11-28T05:31:03;17.95;;;14.52;;
51921;SDS011;37948;53.260;6.394;2022-11-28T05:33:29;17.55;;;14.30;;
51921;SDS011;37948;53.260;6.394;2022-11-28T05:35:56;17.52;;;13.98;;
51921;SDS011;37948;53.260;6.394;2022-11-28T05:38:30;17.40;;;13.38;;
51921;SDS011;37948;53.260;6.394;2022-11-28T05:40:56;19.85;;;14.80;;
51921;SDS011;37948;53.260;6.394;2022-11-28T05:43:21;17.08;;;13.60;;
51921;SDS011;37948;53.260;6.394;2022-11-28T05:45:47;16.75;;;13.85;;
51921;SDS011;37948;53.260;6.394;2022-11-28T05:48:13;17.00;;;13.80;;
51921;SDS011;37948;53.260;6.394;2022-11-28T05:50:39;16.05;;;13.70;;
51921;SDS011;37948;53.260;6.394;2022-11-28T05:53:05;14.90;;;12.73;;
51921;SDS011;37948;53.260;6.394;2022-11-28T05:55:32;16.60;;;13.30;;
51921;SDS011;37948;53.260;6.394;2022-11-28T05:57:57;17.80;;;13.02;;
51921;SDS011;37948;53.260;6.394;2022-11-28T06:00:23;19.70;;;14.48;;
51921;SDS011;37948;53.260;6.394;2022-11-28T06:02:48;15.18;;;12.63;;
51921;SDS011;37948;53.260;6.394;2022-11-28T06:05:14;17.05;;;12.95;;
51921;SDS011;37948;53.260;6.394;2022-11-28T06:07:40;15.55;;;12.45;;
51921;SDS011;37948;53.260;6.394;2022-11-28T06:10:05;16.27;;;12.15;;
51921;SDS011;37948;53.260;6.394;2022-11-28T06:12:32;17.35;;;12.95;;
51921;SDS011;37948;53.260;6.394;2022-11-28T06:14:57;15.63;;;12.38;;
51921;SDS011;37948;53.260;6.394;2022-11-28T06:17:23;16.75;;;13.00;;
51921;SDS011;37948;53.260;6.394;2022-11-28T06:19:49;21.20;;;13.23;;
51921;SDS011;37948;53.260;6.394;2022-11-28T06:22:14;16.35;;;12.80;;
51921;SDS011;37948;53.260;6.394;2022-11-28T06:24:40;16.85;;;12.38;;
51921;SDS011;37948;53.260;6.394;2022-11-28T06:27:05;18.40;;;12.70;;
51921;SDS011;37948;53.260;6.394;2022-11-28T06:29:31;17.73;;;13.02;;
51921;SDS011;37948;53.260;6.394;2022-11-28T06:31:57;18.42;;;12.63;;
51921;SDS011;37948;53.260;6.394;2022-11-28T06:34:23;15.95;;;12.52;;
51921;SDS011;37948;53.260;6.394;2022-11-28T06:36:49;15.52;;;11.80;;
51921;SDS011;37948;53.260;6.394;2022-11-28T06:39:15;18.05;;;11.93;;
51921;SDS011;37948;53.260;6.394;2022-11-28T06:41:41;17.92;;;12.25;;
51921;SDS011;37948;53.260;6.394;2022-11-28T06:44:08;17.60;;;12.07;;
51921;SDS011;37948;53.260;6.394;2022-11-28T06:46:40;16.90;;;12.98;;
51921;SDS011;37948;53.260;6.394;2022-11-28T06:49:06;16.73;;;12.32;;
51921;SDS011;37948;53.260;6.394;2022-11-28T06:51:34;18.17;;;12.98;;
51921;SDS011;37948;53.260;6.394;2022-11-28T06:53:59;19.13;;;12.80;;
51921;SDS011;37948;53.260;6.394;2022-11-28T06:56:25;16.67;;;11.88;;
51921;SDS011;37948;53.260;6.394;2022-11-28T06:58:54;21.42;;;12.90;;
51921;SDS011;37948;53.260;6.394;2022-11-28T07:01:22;18.75;;;12.02;;
51921;SDS011;37948;53.260;6.394;2022-11-28T07:03:49;18.10;;;12.88;;
51921;SDS011;37948;53.260;6.394;2022-11-28T07:06:16;17.73;;;13.50;;
51921;SDS011;37948;53.260;6.394;2022-11-28T07:08:43;19.20;;;12.68;;
51921;SDS011;37948;53.260;6.394;2022-11-28T07:11:17;17.92;;;11.85;;
51921;SDS011;37948;53.260;6.394;2022-11-28T07:13:47;16.30;;;12.68;;
51921;SDS011;37948;53.260;6.394;2022-11-28T07:16:15;18.80;;;12.77;;
51921;SDS011;37948;53.260;6.394;2022-11-28T07:18:44;14.88;;;11.13;;
51921;SDS011;37948;53.260;6.394;2022-11-28T07:21:10;15.40;;;11.07;;
51921;SDS011;37948;53.260;6.394;2022-11-28T07:23:36;18.05;;;11.63;;
51921;SDS011;37948;53.260;6.394;2022-11-28T07:26:02;16.20;;;11.30;;
51921;SDS011;37948;53.260;6.394;2022-11-28T07:28:29;13.85;;;11.32;;
51921;SDS011;37948;53.260;6.394;2022-11-28T07:30:59;16.50;;;11.35;;
51921;SDS011;37948;53.260;6.394;2022-11-28T07:33:34;13.55;;;10.40;;
51921;SDS011;37948;53.260;6.394;2022-11-28T07:36:01;16.77;;;11.43;;
51921;SDS011;37948;53.260;6.394;2022-11-28T07:38:28;13.48;;;10.48;;
51921;SDS011;37948;53.260;6.394;2022-11-28T07:40:54;13.68;;;10.68;;
51921;SDS011;37948;53.260;6.394;2022-11-28T07:43:19;14.77;;;10.30;;
51921;SDS011;37948;53.260;6.394;2022-11-28T07:45:45;13.15;;;10.50;;
51921;SDS011;37948;53.260;6.394;2022-11-28T07:48:11;15.38;;;10.00;;
51921;SDS011;37948;53.260;6.394;2022-11-28T07:50:37;14.10;;;9.98;;
51921;SDS011;37948;53.260;6.394;2022-11-28T07:53:03;15.05;;;10.57;;
51921;SDS011;37948;53.260;6.394;2022-11-28T07:55:29;15.95;;;9.80;;
51921;SDS011;37948;53.260;6.394;2022-11-28T07:57:54;13.15;;;9.65;;
51921;SDS011;37948;53.260;6.394;2022-11-28T08:00:20;11.25;;;8.75;;
51921;SDS011;37948;53.260;6.394;2022-11-28T08:02:46;11.95;;;9.48;;
51921;SDS011;37948;53.260;6.394;2022-11-28T08:05:12;14.00;;;9.93;;
51921;SDS011;37948;53.260;6.394;2022-11-28T08:07:38;12.80;;;9.10;;
51921;SDS011;37948;53.260;6.394;2022-11-28T08:10:06;12.63;;;9.13;;
51921;SDS011;37948;53.260;6.394;2022-11-28T08:12:32;12.55;;;9.55;;
51921;SDS011;37948;53.260;6.394;2022-11-28T08:14:58;13.77;;;9.38;;
51921;SDS011;37948;53.260;6.394;2022-11-28T08:17:23;10.93;;;9.68;;
51921;SDS011;37948;53.260;6.394;2022-11-28T08:19:49;15.98;;;10.05;;
51921;SDS011;37948;53.260;6.394;2022-11-28T08:22:14;13.68;;;9.30;;
51921;SDS011;37948;53.260;6.394;2022-11-28T08:24:40;13.32;;;9.85;;
51921;SDS011;37948;53.260;6.394;2022-11-28T08:27:06;14.45;;;9.30;;
51921;SDS011;37948;53.260;6.394;2022-11-28T08:29:32;13.88;;;9.40;;
51921;SDS011;37948;53.260;6.394;2022-11-28T08:31:57;13.27;;;9.40;;
51921;SDS011;37948;53.260;6.394;2022-11-28T08:34:23;18.90;;;10.40;;
51921;SDS011;37948;53.260;6.394;2022-11-28T08:36:48;14.00;;;9.75;;
51921;SDS011;37948;53.260;6.394;2022-11-28T08:39:14;14.60;;;10.00;;
51921;SDS011;37948;53.260;6.394;2022-11-28T08:41:40;17.13;;;9.65;;
51921;SDS011;37948;53.260;6.394;2022-11-28T08:44:06;13.18;;;9.50;;
51921;SDS011;37948;53.260;6.394;2022-11-28T08:46:31;14.38;;;9.88;;
51921;SDS011;37948;53.260;6.394;2022-11-28T08:48:57;13.65;;;9.40;;
51921;SDS011;37948;53.260;6.394;2022-11-28T08:51:25;13.48;;;9.13;;
51921;SDS011;37948;53.260;6.394;2022-11-28T08:53:51;10.73;;;8.68;;
51921;SDS011;37948;53.260;6.394;2022-11-28T08:56:17;12.10;;;8.73;;
51921;SDS011;37948;53.260;6.394;2022-11-28T08:58:43;11.75;;;9.30;;
51921;SDS011;37948;53.260;6.394;2022-11-28T09:01:15;13.63;;;9.45;;
51921;SDS011;37948;53.260;6.394;2022-11-28T09:03:43;13.27;;;9.70;;
51921;SDS011;37948;53.260;6.394;2022-11-28T09:06:08;10.43;;;8.82;;
51921;SDS011;37948;53.260;6.394;2022-11-28T09:08:34;12.65;;;8.70;;
51921;SDS011;37948;53.260;6.394;2022-11-28T09:11:00;11.45;;;8.10;;
51921;SDS011;37948;53.260;6.394;2022-11-28T09:13:25;15.77;;;9.32;;
51921;SDS011;37948;53.260;6.394;2022-11-28T09:15:51;13.00;;;8.23;;
51921;SDS011;37948;53.260;6.394;2022-11-28T09:18:16;14.05;;;8.27;;
51921;SDS011;37948;53.260;6.394;2022-11-28T09:20:43;11.90;;;8.32;;
51921;SDS011;37948;53.260;6.394;2022-11-28T09:23:09;9.82;;;8.18;;
51921;SDS011;37948;53.260;6.394;2022-11-28T09:25:35;9.95;;;8.05;;
51921;SDS011;37948;53.260;6.394;2022-11-28T09:28:04;11.45;;;8.50;;
51921;SDS011;37948;53.260;6.394;2022-11-28T09:30:31;11.40;;;7.72;;
51921;SDS011;37948;53.260;6.394;2022-11-28T09:32:57;10.32;;;8.02;;
51921;SDS011;37948;53.260;6.394;2022-11-28T09:35:22;10.00;;;7.63;;
51921;SDS011;37948;53.260;6.394;2022-11-28T09:37:48;10.68;;;8.07;;
51921;SDS011;37948;53.260;6.394;2022-11-28T09:40:17;11.43;;;8.45;;
51921;SDS011;37948;53.260;6.394;2022-11-28T09:42:48;10.70;;;7.63;;
51921;SDS011;37948;53.260;6.394;2022-11-28T09:47:42;13.38;;;8.48;;
51921;SDS011;37948;53.260;6.394;2022-11-28T09:50:21;10.30;;;7.78;;
51921;SDS011;37948;53.260;6.394;2022-11-28T09:53:33;12.73;;;8.68;;
51921;SDS011;37948;53.260;6.394;2022-11-28T09:55:34;12.75;;;8.55;;
51921;SDS011;37948;53.260;6.394;2022-11-28T09:58:09;14.98;;;9.00;;
51921;SDS011;37948;53.260;6.394;2022-11-28T10:00:50;11.77;;;8.30;;
51921;SDS011;37948;53.260;6.394;2022-11-28T10:03:53;10.73;;;7.93;;
51921;SDS011;37948;53.260;6.394;2022-11-28T10:06:43;11.75;;;9.27;;
51921;SDS011;37948;53.260;6.394;2022-11-28T10:15:02;13.35;;;9.00;;
51921;SDS011;37948;53.260;6.394;2022-11-28T10:17:46;14.65;;;9.32;;
51921;SDS011;37948;53.260;6.394;2022-11-28T10:20:18;13.05;;;8.80;;
51921;SDS011;37948;53.260;6.394;2022-11-28T10:22:52;13.00;;;8.68;;
51921;SDS011;37948;53.260;6.394;2022-11-28T10:25:25;13.48;;;9.82;;
51921;SDS011;37948;53.260;6.394;2022-11-28T10:27:55;15.43;;;9.80;;
51921;SDS011;37948;53.260;6.394;2022-11-28T10:30:25;14.43;;;9.43;;
51921;SDS011;37948;53.260;6.394;2022-11-28T10:38:23;15.15;;;10.10;;
51921;SDS011;37948;53.260;6.394;2022-11-28T10:41:09;15.23;;;9.85;;
51921;SDS011;37948;53.260;6.394;2022-11-28T10:43:44;18.70;;;10.38;;
51921;SDS011;37948;53.260;6.394;2022-11-28T10:52:18;16.98;;;10.27;;
51921;SDS011;37948;53.260;6.394;2022-11-28T10:55:02;13.30;;;9.55;;
51921;SDS011;37948;53.260;6.394;2022-11-28T11:00:23;24.25;;;11.07;;
51921;SDS011;37948;53.260;6.394;2022-11-28T11:02:50;15.43;;;9.77;;
51921;SDS011;37948;53.260;6.394;2022-11-28T11:05:27;19.45;;;10.35;;
51921;SDS011;37948;53.260;6.394;2022-11-28T11:08:00;15.18;;;9.77;;
51921;SDS011;37948;53.260;6.394;2022-11-28T11:10:37;14.70;;;9.60;;
51921;SDS011;37948;53.260;6.394;2022-11-28T11:13:20;13.75;;;8.70;;
51921;SDS011;37948;53.260;6.394;2022-11-28T11:16:09;14.98;;;8.90;;
51921;SDS011;37948;53.260;6.394;2022-11-28T11:23:43;13.93;;;9.30;;
51921;SDS011;37948;53.260;6.394;2022-11-28T11:26:22;12.98;;;8.65;;
51921;SDS011;37948;53.260;6.394;2022-11-28T11:28:51;14.83;;;8.57;;
51921;SDS011;37948;53.260;6.394;2022-11-28T11:31:26;13.32;;;8.50;;
51921;SDS011;37948;53.260;6.394;2022-11-28T11:34:18;13.15;;;8.73;;
51921;SDS011;37948;53.260;6.394;2022-11-28T11:36:46;13.73;;;8.77;;
51921;SDS011;37948;53.260;6.394;2022-11-28T11:41:39;13.45;;;8.75;;
51921;SDS011;37948;53.260;6.394;2022-11-28T11:46:57;15.70;;;8.43;;
51921;SDS011;37948;53.260;6.394;2022-11-28T11:49:36;14.98;;;8.05;;
51921;SDS011;37948;53.260;6.394;2022-11-28T11:54:52;12.13;;;7.60;;
51921;SDS011;37948;53.260;6.394;2022-11-28T11:57:37;16.67;;;8.73;;
51921;SDS011;37948;53.260;6.394;2022-11-28T12:02:58;12.32;;;8.15;;
51921;SDS011;37948;53.260;6.394;2022-11-28T12:05:29;15.68;;;8.77;;
51921;SDS011;37948;53.260;6.394;2022-11-28T12:08:10;11.30;;;8.13;;
51921;SDS011;37948;53.260;6.394;2022-11-28T12:10:45;12.80;;;8.13;;
51921;SDS011;37948;53.260;6.394;2022-11-28T12:15:53;11.95;;;7.78;;
51921;SDS011;37948;53.260;6.394;2022-11-28T12:21:19;13.23;;;7.93;;
51921;SDS011;37948;53.260;6.394;2022-11-28T12:24:10;10.98;;;7.47;;
51921;SDS011;37948;53.260;6.394;2022-11-28T12:29:28;12.82;;;7.32;;
51921;SDS011;37948;53.260;6.394;2022-11-28T12:35:14;12.45;;;7.35;;
51921;SDS011;37948;53.260;6.394;2022-11-28T12:38:06;12.10;;;7.50;;
51921;SDS011;37948;53.260;6.394;2022-11-28T12:43:38;9.93;;;7.15;;
51921;SDS011;37948;53.260;6.394;2022-11-28T12:54:37;11.68;;;7.60;;
51921;SDS011;37948;53.260;6.394;2022-11-28T13:11:05;14.80;;;8.93;;
51921;SDS011;37948;53.260;6.394;2022-11-28T13:13:52;17.95;;;9.15;;
51921;SDS011;37948;53.260;6.394;2022-11-28T13:16:30;15.25;;;8.88;;
51921;SDS011;37948;53.260;6.394;2022-11-28T13:19:35;16.17;;;9.35;;
51921;SDS011;37948;53.260;6.394;2022-11-28T13:22:15;13.43;;;8.75;;
51921;SDS011;37948;53.260;6.394;2022-11-28T13:24:59;15.18;;;9.15;;
51921;SDS011;37948;53.260;6.394;2022-11-28T13:30:26;13.38;;;8.68;;
51921;SDS011;37948;53.260;6.394;2022-11-28T13:33:06;16.63;;;9.48;;
51921;SDS011;37948;53.260;6.394;2022-11-28T13:35:55;19.35;;;9.00;;
51921;SDS011;37948;53.260;6.394;2022-11-28T13:40:58;17.63;;;10.10;;
51921;SDS011;37948;53.260;6.394;2022-11-28T13:43:56;14.90;;;9.35;;
51921;SDS011;37948;53.260;6.394;2022-11-28T13:46:28;17.63;;;9.18;;
51921;SDS011;37948;53.260;6.394;2022-11-28T13:48:57;22.77;;;10.05;;
51921;SDS011;37948;53.260;6.394;2022-11-28T13:51:26;15.75;;;8.80;;
51921;SDS011;37948;53.260;6.394;2022-11-28T13:56:41;19.88;;;9.70;;
51921;SDS011;37948;53.260;6.394;2022-11-28T13:59:13;16.92;;;9.50;;
51921;SDS011;37948;53.260;6.394;2022-11-28T14:01:44;18.73;;;9.95;;
51921;SDS011;37948;53.260;6.394;2022-11-28T14:04:12;19.23;;;9.30;;
51921;SDS011;37948;53.260;6.394;2022-11-28T14:14:31;17.85;;;10.23;;
51921;SDS011;37948;53.260;6.394;2022-11-28T14:25:27;14.95;;;9.50;;
51921;SDS011;37948;53.260;6.394;2022-11-28T14:27:57;16.75;;;9.63;;
51921;SDS011;37948;53.260;6.394;2022-11-28T14:30:31;17.98;;;9.73;;
51921;SDS011;37948;53.260;6.394;2022-11-28T14:33:01;16.20;;;9.10;;
51921;SDS011;37948;53.260;6.394;2022-11-28T14:41:00;17.08;;;9.98;;
51921;SDS011;37948;53.260;6.394;2022-11-28T14:54:24;27.63;;;11.43;;
51921;SDS011;37948;53.260;6.394;2022-11-28T14:56:59;26.08;;;11.93;;
51921;SDS011;37948;53.260;6.394;2022-11-28T14:59:32;24.33;;;12.18;;
51921;SDS011;37948;53.260;6.394;2022-11-28T15:04:49;25.27;;;11.45;;
51921;SDS011;37948;53.260;6.394;2022-11-28T15:10:13;32.42;;;12.30;;
51921;SDS011;37948;53.260;6.394;2022-11-28T15:15:28;31.08;;;13.30;;
51921;SDS011;37948;53.260;6.394;2022-11-28T15:17:56;29.38;;;12.05;;
51921;SDS011;37948;53.260;6.394;2022-11-28T15:20:26;26.92;;;12.50;;
51921;SDS011;37948;53.260;6.394;2022-11-28T15:22:54;32.45;;;13.52;;
51921;SDS011;37948;53.260;6.394;2022-11-28T15:25:21;27.50;;;13.35;;
51921;SDS011;37948;53.260;6.394;2022-11-28T15:27:49;40.42;;;14.90;;
51921;SDS011;37948;53.260;6.394;2022-11-28T15:30:24;32.35;;;14.65;;
51921;SDS011;37948;53.260;6.394;2022-11-28T15:32:59;39.80;;;16.15;;
51921;SDS011;37948;53.260;6.394;2022-11-28T15:35:25;36.13;;;15.55;;
51921;SDS011;37948;53.260;6.394;2022-11-28T15:37:52;33.60;;;14.80;;
51921;SDS011;37948;53.260;6.394;2022-11-28T15:40:31;30.45;;;13.93;;
51921;SDS011;37948;53.260;6.394;2022-11-28T15:42:59;29.50;;;14.15;;
51921;SDS011;37948;53.260;6.394;2022-11-28T15:45:30;49.67;;;18.45;;
51921;SDS011;37948;53.260;6.394;2022-11-28T15:47:59;42.10;;;15.90;;
51921;SDS011;37948;53.260;6.394;2022-11-28T15:50:29;54.63;;;17.50;;
51921;SDS011;37948;53.260;6.394;2022-11-28T15:55:27;37.78;;;15.70;;
51921;SDS011;37948;53.260;6.394;2022-11-28T16:00:58;34.75;;;14.02;;
51921;SDS011;37948;53.260;6.394;2022-11-28T16:03:26;48.72;;;17.20;;
51921;SDS011;37948;53.260;6.394;2022-11-28T16:06:06;73.03;;;20.80;;
51921;SDS011;37948;53.260;6.394;2022-11-28T16:08:33;63.50;;;19.27;;
51921;SDS011;37948;53.260;6.394;2022-11-28T16:11:04;48.72;;;18.00;;
51921;SDS011;37948;53.260;6.394;2022-11-28T16:13:31;65.57;;;19.30;;
51921;SDS011;37948;53.260;6.394;2022-11-28T16:15:57;92.05;;;22.65;;
51921;SDS011;37948;53.260;6.394;2022-11-28T16:18:25;108.05;;;23.65;;
51921;SDS011;37948;53.260;6.394;2022-11-28T16:20:52;57.92;;;19.50;;
51921;SDS011;37948;53.260;6.394;2022-11-28T16:23:20;63.58;;;19.77;;
51921;SDS011;37948;53.260;6.394;2022-11-28T16:26:02;105.60;;;23.45;;
51921;SDS011;37948;53.260;6.394;2022-11-28T16:28:53;73.70;;;19.83;;
51921;SDS011;37948;53.260;6.394;2022-11-28T16:31:22;98.10;;;23.02;;
51921;SDS011;37948;53.260;6.394;2022-11-28T16:33:50;100.13;;;24.10;;
51921;SDS011;37948;53.260;6.394;2022-11-28T16:36:31;62.40;;;20.30;;
51921;SDS011;37948;53.260;6.394;2022-11-28T16:39:04;48.53;;;19.70;;
51921;SDS011;37948;53.260;6.394;2022-11-28T16:41:33;85.75;;;21.40;;
51921;SDS011;37948;53.260;6.394;2022-11-28T16:44:01;63.92;;;20.77;;
51921;SDS011;37948;53.260;6.394;2022-11-28T16:46:37;60.35;;;19.33;;
51921;SDS011;37948;53.260;6.394;2022-11-28T16:49:04;60.10;;;21.50;;
51921;SDS011;37948;53.260;6.394;2022-11-28T16:51:40;123.78;;;24.75;;
51921;SDS011;37948;53.260;6.394;2022-11-28T16:56:53;99.55;;;23.23;;
51921;SDS011;37948;53.260;6.394;2022-11-28T16:59:23;93.97;;;24.42;;
51921;SDS011;37948;53.260;6.394;2022-11-28T17:01:52;136.82;;;26.70;;
51921;SDS011;37948;53.260;6.394;2022-11-28T17:09:17;145.40;;;25.10;;
51921;SDS011;37948;53.260;6.394;2022-11-28T17:11:44;99.22;;;24.52;;
51921;SDS011;37948;53.260;6.394;2022-11-28T17:14:14;84.78;;;21.73;;
51921;SDS011;37948;53.260;6.394;2022-11-28T17:16:40;117.32;;;25.45;;
51921;SDS011;37948;53.260;6.394;2022-11-28T17:19:06;124.05;;;25.35;;
51921;SDS011;37948;53.260;6.394;2022-11-28T17:21:37;113.70;;;25.48;;
51921;SDS011;37948;53.260;6.394;2022-11-28T17:24:18;117.13;;;25.15;;
51921;SDS011;37948;53.260;6.394;2022-11-28T17:26:48;113.80;;;23.98;;
51921;SDS011;37948;53.260;6.394;2022-11-28T17:29:15;104.07;;;23.70;;
51921;SDS011;37948;53.260;6.394;2022-11-28T17:31:42;89.72;;;23.00;;
51921;SDS011;37948;53.260;6.394;2022-11-28T17:34:20;89.75;;;22.88;;
51921;SDS011;37948;53.260;6.394;2022-11-28T17:36:50;130.75;;;26.52;;
51921;SDS011;37948;53.260;6.394;2022-11-28T17:39:17;98.82;;;25.73;;
51921;SDS011;37948;53.260;6.394;2022-11-28T17:41:44;172.30;;;28.13;;
51921;SDS011;37948;53.260;6.394;2022-11-28T17:44:20;192.95;;;27.63;;
51921;SDS011;37948;53.260;6.394;2022-11-28T17:46:51;153.68;;;26.13;;
51921;SDS011;37948;53.260;6.394;2022-11-28T17:49:18;183.20;;;30.60;;
51921;SDS011;37948;53.260;6.394;2022-11-28T17:51:44;183.63;;;29.10;;
51921;SDS011;37948;53.260;6.394;2022-11-28T17:54:10;168.77;;;27.75;;
51921;SDS011;37948;53.260;6.394;2022-11-28T17:56:40;182.30;;;28.85;;